| time (UTC) | temp F | wind direction | speed MPH | gust MPH | rain 1hr in | rain 24hr in | rain mn in | humidity % | barometer mb |
| 20260905211601 | 72 | 344 | 0.0 | 2.0 | 0.50 | 0.63 | 0.63 | 93 | 1009.7 |
| 20260905210058 | 72 | 337 | 0.0 | 2.0 | 0.50 | 0.63 | 0.63 | 89 | 1009.9 |
| 20260905204557 | 74 | 337 | 0.0 | 5.0 | 0.48 | 0.61 | 0.61 | 84 | 1010.0 |
| 20260905203056 | 79 | 109 | 0.0 | 2.0 | 0.00 | 0.13 | 0.13 | 76 | 1009.7 |
| 20260905201554 | 80 | 172 | 0.0 | 2.0 | 0.00 | 0.13 | 0.13 | 76 | 1009.4 |
| 20260905200125 | 80 | 142 | 0.0 | 2.0 | 0.00 | 0.13 | 0.13 | 76 | 1009.6 |
| 20260905194555 | 80 | 201 | 0.0 | 2.0 | 0.00 | 0.53 | 0.13 | 76 | 1009.8 |
| 20260905193047 | 79 | 196 | 0.0 | 2.0 | 0.00 | 0.53 | 0.13 | 80 | 1009.9 |
| 20260905191544 | 78 | 177 | 0.0 | 2.0 | 0.00 | 0.53 | 0.13 | 82 | 1010.2 |
| 20260905190042 | 78 | 178 | 0.0 | 2.0 | 0.00 | 0.53 | 0.13 | 83 | 1010.3 |
| 20260905184548 | 77 | 187 | 0.0 | 2.0 | 0.00 | 0.53 | 0.13 | 85 | 1010.5 |
| 20260905183038 | 76 | 184 | 0.0 | 2.0 | 0.00 | 0.53 | 0.13 | 87 | 1010.7 |
| 20260905181535 | 76 | 184 | 0.0 | 2.0 | 0.11 | 0.53 | 0.13 | 89 | 1010.9 |
| 20260905180032 | 74 | 158 | 0.0 | 2.0 | 0.12 | 0.53 | 0.13 | 91 | 1010.9 |
| 20260905174540 | 74 | 165 | 0.0 | 0.0 | 0.13 | 0.53 | 0.13 | 92 | 1011.0 |
| 20260905173032 | 74 | 165 | 0.0 | 2.0 | 0.13 | 0.53 | 0.13 | 90 | 1011.2 |
| 20260905171534 | 74 | 165 | 0.0 | 2.0 | 0.02 | 0.42 | 0.02 | 88 | 1011.3 |
| 20260905170031 | 74 | 165 | 0.0 | 1.0 | 0.01 | 0.41 | 0.01 | 86 | 1011.2 |
| 20260905164526 | 74 | 165 | 0.0 | 2.0 | 0.00 | 0.40 | 0.00 | 88 | 1011.3 |
| 20260905163025 | 73 | 165 | 0.0 | 2.0 | 0.00 | 0.40 | 0.00 | 89 | 1011.4 |
| 20260905161525 | 73 | 144 | 0.0 | 2.0 | 0.00 | 0.40 | 0.00 | 89 | 1011.7 |
| 20260905160041 | 74 | 165 | 0.0 | 2.0 | 0.00 | 0.40 | 0.00 | 90 | 1012.2 |
| 20260905154522 | 74 | 177 | 0.0 | 2.0 | 0.00 | 0.40 | 0.00 | 90 | 1012.2 |
| 20260905153018 | 74 | 177 | 0.0 | 0.0 | 0.00 | 0.40 | 0.00 | 90 | 1012.2 |
| 20260905151514 | 73 | 177 | 0.0 | 2.0 | 0.00 | 0.40 | 0.00 | 90 | 1012.2 |
| 20260905150020 | 73 | 182 | 0.0 | 2.0 | 0.00 | 0.40 | 0.00 | 90 | 1012.4 |
| 20260905144527 | 73 | 184 | 0.0 | 1.0 | 0.00 | 0.40 | 0.00 | 90 | 1012.5 |
| 20260905143015 | 73 | 184 | 0.0 | 0.0 | 0.00 | 0.40 | 0.00 | 91 | 1012.2 |
| 20260905141506 | 73 | 184 | 0.0 | 2.0 | 0.00 | 0.40 | 0.00 | 90 | 1012.2 |
| 20260905140004 | 73 | 197 | 0.0 | 1.0 | 0.00 | 0.40 | 0.00 | 90 | 1012.2 |
| 20260905134607 | 72 | 197 | 0.0 | 2.0 | 0.00 | 0.40 | 0.00 | 89 | 1012.1 |
| 20260905133059 | 72 | 197 | 0.0 | 0.0 | 0.00 | 0.40 | 0.00 | 91 | 1011.4 |
| 20260905131559 | 71 | 197 | 0.0 | 0.0 | 0.00 | 0.40 | 0.00 | 91 | 1011.5 |
| 20260905130057 | 71 | 197 | 0.0 | 1.0 | 0.00 | 0.40 | 0.00 | 91 | 1011.7 |
| 20260905124554 | 70 | 197 | 0.0 | 0.0 | 0.00 | 0.40 | 0.00 | 93 | 1011.7 |
| 20260905123057 | 69 | 197 | 0.0 | 2.0 | 0.00 | 0.40 | 0.00 | 94 | 1011.4 |
| 20260905121553 | 69 | 197 | 0.0 | 2.0 | 0.00 | 0.40 | 0.00 | 94 | 1011.4 |
| 20260905120057 | 69 | 197 | 0.0 | 2.0 | 0.00 | 0.40 | 0.00 | 94 | 1011.5 |
| 20260905114624 | 68 | 197 | 0.0 | 0.0 | 0.00 | 0.40 | 0.00 | 94 | 1011.4 |
| 20260905113055 | 68 | 197 | 0.0 | 0.0 | 0.00 | 0.40 | 0.00 | 94 | 1011.3 |
| 20260905111554 | 68 | 197 | 0.0 | 0.0 | 0.00 | 0.40 | 0.00 | 94 | 1011.1 |
| 20260905110050 | 68 | 197 | 0.0 | 2.0 | 0.00 | 0.40 | 0.00 | 95 | 1011.0 |
| 20260905104552 | 68 | 189 | 0.0 | 1.0 | 0.00 | 0.40 | 0.00 | 94 | 1011.0 |
| 20260905103050 | 68 | 189 | 0.0 | 0.0 | 0.00 | 0.40 | 0.00 | 94 | 1010.7 |
| 20260905101549 | 68 | 186 | 0.0 | 2.0 | 0.00 | 0.40 | 0.00 | 94 | 1010.5 |
| 20260905100107 | 68 | 186 | 0.0 | 0.0 | 0.00 | 0.40 | 0.00 | 94 | 1010.3 |
| 20260905094554 | 68 | 186 | 0.0 | 0.0 | 0.00 | 0.40 | 0.00 | 93 | 1010.5 |
| 20260905093048 | 68 | 186 | 0.0 | 0.0 | 0.00 | 0.40 | 0.00 | 93 | 1010.4 |
| 20260905091557 | 68 | 186 | 0.0 | 0.0 | 0.00 | 0.40 | 0.00 | 93 | 1010.5 |
| 20260905090045 | 68 | 186 | 0.0 | 0.0 | 0.00 | 0.40 | 0.00 | 94 | 1010.3 |
| 20260905084544 | 68 | 186 | 0.0 | 0.0 | 0.00 | 0.40 | 0.00 | 93 | 1010.3 |
| 20260905083044 | 68 | 186 | 0.0 | 0.0 | 0.00 | 0.40 | 0.00 | 93 | 1010.3 |
| 20260905081542 | 68 | 186 | 0.0 | 0.0 | 0.00 | 0.40 | 0.00 | 93 | 1010.5 |
| 20260905080041 | 69 | 186 | 0.0 | 0.0 | 0.00 | 0.40 | 0.00 | 93 | 1010.7 |
| 20260905074551 | 69 | 186 | 0.0 | 0.0 | 0.00 | 0.40 | 0.00 | 93 | 1010.7 |
| 20260905073056 | 69 | 186 | 0.0 | 0.0 | 0.00 | 0.40 | 0.00 | 93 | 1010.7 |
| 20260905071534 | 69 | 186 | 0.0 | 2.0 | 0.00 | 0.40 | 0.00 | 93 | 1011.0 |
| 20260905070032 | 69 | 186 | 0.0 | 0.0 | 0.00 | 0.40 | 0.00 | 93 | 1011.1 |
| 20260905064531 | 69 | 186 | 0.0 | 0.0 | 0.00 | 0.40 | 0.00 | 93 | 1011.2 |
| 20260905063028 | 69 | 186 | 0.0 | 0.0 | 0.00 | 0.40 | 0.00 | 92 | 1011.5 |
| 20260905061526 | 70 | 186 | 0.0 | 0.0 | 0.00 | 0.40 | 0.00 | 92 | 1011.8 |
| 20260905060023 | 70 | 186 | 0.0 | 0.0 | 0.00 | 0.40 | 0.00 | 91 | 1011.8 |
| 20260905054521 | 70 | 186 | 0.0 | 2.0 | 0.00 | 0.40 | 0.00 | 92 | 1012.0 |
| 20260905053020 | 70 | 186 | 0.0 | 2.0 | 0.00 | 0.40 | 0.00 | 92 | 1012.2 |
| 20260905051519 | 70 | 185 | 0.0 | 2.0 | 0.00 | 0.40 | 0.00 | 92 | 1012.3 |
| 20260905050019 | 70 | 184 | 0.0 | 0.0 | 0.00 | 0.40 | 0.00 | 91 | 1012.4 |
| 20260905044519 | 71 | 184 | 0.0 | 2.0 | 0.00 | 0.47 | 0.00 | 92 | 1012.5 |
| 20260905043015 | 71 | 184 | 0.0 | 1.0 | 0.00 | 0.47 | 0.00 | 91 | 1012.6 |
| 20260905041512 | 71 | 185 | 0.0 | 2.0 | 0.00 | 0.47 | 0.00 | 90 | 1012.5 |
| 20260905040014 | 72 | 185 | 0.0 | 1.0 | 0.00 | 0.47 | 0.00 | 90 | 1012.4 |
| 20260905034509 | 72 | 185 | 0.0 | 0.0 | 0.00 | 0.93 | 0.47 | 90 | 1012.6 |
| 20260905033022 | 72 | 186 | 0.0 | 2.0 | 0.00 | 0.93 | 0.47 | 89 | 1012.8 |
| 20260905031507 | 72 | 189 | 0.0 | 3.0 | 0.00 | 0.93 | 0.47 | 90 | 1012.8 |
| 20260905030008 | 72 | 205 | 0.0 | 3.0 | 0.00 | 0.93 | 0.47 | 91 | 1012.7 |
| 20260905024505 | 72 | 190 | 0.0 | 2.0 | 0.00 | 0.93 | 0.47 | 91 | 1012.7 |
| 20260905023018 | 72 | 194 | 0.0 | 2.0 | 0.00 | 0.93 | 0.47 | 92 | 1012.4 |
| 20260905021504 | 72 | 180 | 0.0 | 2.0 | 0.00 | 0.93 | 0.47 | 92 | 1012.2 |
| 20260905020003 | 72 | 197 | 0.0 | 2.0 | 0.00 | 0.93 | 0.47 | 92 | 1012.2 |
| 20260905014502 | 72 | 198 | 0.0 | 2.0 | 0.00 | 0.93 | 0.47 | 92 | 1011.9 |
| 20260905013002 | 72 | 174 | 0.0 | 1.0 | 0.00 | 0.93 | 0.47 | 93 | 1011.6 |
| 20260905011503 | 72 | 174 | 0.0 | 1.0 | 0.00 | 0.93 | 0.47 | 93 | 1011.4 |
| 20260905010001 | 72 | 170 | 0.0 | 2.0 | 0.00 | 0.93 | 0.47 | 93 | 1011.5 |
| 20260905004502 | 72 | 169 | 0.0 | 0.0 | 0.00 | 0.93 | 0.47 | 93 | 1011.5 |
| 20260905003100 | 73 | 170 | 0.0 | 2.0 | 0.00 | 0.93 | 0.47 | 93 | 1011.4 |
| 20260905001608 | 73 | 170 | 0.0 | 0.0 | 0.00 | 0.93 | 0.47 | 93 | 1011.2 |
| 20260905000116 | 73 | 170 | 0.0 | 1.0 | 0.00 | 0.93 | 0.47 | 93 | 1011.3 |
| 20260904234558 | 74 | 170 | 0.0 | 2.0 | 0.00 | 0.93 | 0.47 | 93 | 1011.3 |
| 20260904233059 | 74 | 170 | 0.0 | 2.0 | 0.00 | 0.93 | 0.47 | 93 | 1011.5 |
| 20260904231601 | 74 | 170 | 0.0 | 0.0 | 0.00 | 0.93 | 0.47 | 93 | 1011.6 |
| 20260904230057 | 74 | 170 | 0.0 | 1.0 | 0.00 | 0.93 | 0.47 | 93 | 1011.7 |
| 20260904224603 | 74 | 166 | 0.0 | 0.0 | 0.00 | 0.93 | 0.47 | 94 | 1011.7 |
| 20260904223057 | 74 | 166 | 0.0 | 0.0 | 0.00 | 0.93 | 0.47 | 94 | 1011.6 |
| 20260904221556 | 73 | 166 | 0.0 | 0.0 | 0.00 | 0.93 | 0.47 | 94 | 1011.9 |
| 20260904220112 | 73 | 166 | 0.0 | 0.0 | 0.00 | 0.93 | 0.47 | 94 | 1011.7 |
| 20260904214555 | 73 | 166 | 0.0 | 2.0 | 0.00 | 0.93 | 0.47 | 94 | 1012.0 |
| 20260904213055 | 73 | 173 | 0.0 | 2.0 | 0.00 | 0.93 | 0.47 | 94 | 1012.2 |